Time;durP1;ratioP1;P1;durP2;ratioP2;P2;SDS_P1;SDS_P2;PMS_P1;PMS_P2;Temp;Humidity;BMP_temperature;BMP_pressure;BME280_temperature;BME280_humidity;BME280_pressure;Samples;Min_cycle;Max_cycle;Signal;HPM_P1;HPM_P2
2022/07/15 00:02:09;;;;;;;1.42;1.33;;;;;;;29.10;46.07;96946.88;5075959;28;20025;-29
2022/07/15 00:04:36;;;;;;;3.20;1.50;;;;;;;29.12;46.08;96940.75;5075834;28;20032;-28
2022/07/15 00:07:02;;;;;;;1.73;1.30;;;;;;;29.05;46.33;96941.41;5076276;28;20113;-29
2022/07/15 00:12:12;;;;;;;1.58;1.48;;;;;;;29.19;45.92;96928.91;5075811;28;20505;-28
2022/07/15 00:14:38;;;;;;;1.98;1.27;;;;;;;29.19;46.02;96926.88;5075804;28;20032;-29
2022/07/15 00:17:06;;;;;;;1.60;1.50;;;;;;;29.16;46.18;96924.41;5074439;28;20032;-27
2022/07/15 00:19:32;;;;;;;1.50;1.40;;;;;;;29.15;46.12;96920.88;5074483;28;20032;-28
2022/07/15 00:21:57;;;;;;;2.17;1.42;;;;;;;29.06;46.07;96923.34;5075606;28;20028;-28
2022/07/15 00:24:22;;;;;;;2.25;1.40;;;;;;;29.03;46.33;96921.63;5075801;28;20020;-28
2022/07/15 00:26:48;;;;;;;2.30;1.40;;;;;;;29.06;46.22;96920.53;5075500;28;20035;-28
2022/07/15 00:29:14;;;;;;;1.98;1.40;;;;;;;29.21;45.88;96923.53;5076102;28;20028;-28
2022/07/15 00:31:39;;;;;;;1.38;1.13;;;;;;;29.14;46.11;96924.97;5075690;28;20427;-28
2022/07/15 00:34:04;;;;;;;1.50;1.40;;;;;;;29.16;45.97;96921.63;5075689;28;20029;-29
2022/07/15 00:36:30;;;;;;;1.70;1.30;;;;;;;29.18;45.68;96921.81;5075512;28;20023;-27
2022/07/15 00:38:57;;;;;;;2.38;1.50;;;;;;;29.21;45.73;96921.50;5075387;28;20029;-29
2022/07/15 00:41:22;;;;;;;2.28;1.58;;;;;;;29.11;46.29;96922.47;5075263;28;20056;-28
2022/07/15 00:43:48;;;;;;;2.20;1.65;;;;;;;29.09;45.86;96920.22;5075510;28;20052;-28
2022/07/15 00:46:18;;;;;;;2.85;1.55;;;;;;;29.12;45.65;96912.81;5075118;28;20482;-28
2022/07/15 00:48:44;;;;;;;3.85;1.65;;;;;;;29.10;45.86;96910.56;5075045;28;20028;-28
2022/07/15 00:51:10;;;;;;;2.22;1.40;;;;;;;29.14;45.67;96911.00;5075396;28;20065;-29
2022/07/15 00:53:37;;;;;;;2.35;1.70;;;;;;;29.09;45.88;96909.06;5075102;28;20036;-28
2022/07/15 00:56:06;;;;;;;2.63;1.67;;;;;;;29.07;45.95;96900.47;5075252;28;20099;-28
2022/07/15 00:58:34;;;;;;;3.88;1.67;;;;;;;29.18;45.68;96910.63;5075157;28;20020;-27
2022/07/15 01:01:01;;;;;;;2.45;1.80;;;;;;;29.10;45.80;96904.22;5074735;28;20028;-30
2022/07/15 01:03:30;;;;;;;4.95;1.70;;;;;;;29.10;45.75;96902.19;5074880;28;20030;-27
2022/07/15 01:05:57;;;;;;;2.05;1.80;;;;;;;29.20;45.59;96896.88;5073702;28;20387;-28
2022/07/15 01:08:23;;;;;;;2.08;1.73;;;;;;;29.21;45.18;96898.41;5074539;28;20044;-29
2022/07/15 01:10:50;;;;;;;1.77;1.65;;;;;;;29.13;45.37;96897.56;5074617;28;20020;-28
2022/07/15 01:13:16;;;;;;;2.33;1.60;;;;;;;29.15;45.62;96897.78;5074899;28;20024;-27
2022/07/15 01:15:42;;;;;;;2.13;1.63;;;;;;;29.16;45.25;96897.25;5074550;28;20467;-30
2022/07/15 01:18:07;;;;;;;1.83;1.60;;;;;;;29.21;45.10;96887.97;5074619;28;20029;-28
2022/07/15 01:20:33;;;;;;;2.10;1.90;;;;;;;29.10;45.58;96888.22;5074610;28;20105;-28
2022/07/15 01:22:59;;;;;;;2.97;1.70;;;;;;;29.17;45.20;96884.03;5074819;28;20155;-29
2022/07/15 01:25:26;;;;;;;1.85;1.70;;;;;;;29.19;45.06;96881.41;5074372;28;20574;-29
2022/07/15 01:27:51;;;;;;;2.53;1.70;;;;;;;29.12;45.23;96891.22;5074232;28;20031;-28
2022/07/15 01:30:17;;;;;;;2.53;1.52;;;;;;;29.15;44.99;96890.16;5074012;28;20462;-28
2022/07/15 01:32:42;;;;;;;2.17;1.75;;;;;;;29.22;44.59;96889.47;5074265;28;20020;-29
2022/07/15 01:35:08;;;;;;;1.90;1.70;;;;;;;29.16;44.82;96879.72;5074189;28;20029;-29
2022/07/15 01:37:34;;;;;;;1.92;1.73;;;;;;;29.16;44.99;96879.72;5074225;28;20112;-27
2022/07/15 01:39:59;;;;;;;2.20;1.80;;;;;;;29.21;44.91;96885.19;5073908;28;20044;-28
2022/07/15 01:42:25;;;;;;;2.47;1.80;;;;;;;29.18;44.96;96877.13;5073862;28;20097;-29
2022/07/15 01:44:50;;;;;;;2.72;1.83;;;;;;;29.16;44.91;96869.31;5074080;28;20031;-28
2022/07/15 01:47:16;;;;;;;2.38;1.90;;;;;;;29.15;44.93;96872.63;5073952;28;20032;-28
2022/07/15 01:49:41;;;;;;;1.98;1.60;;;;;;;29.17;44.77;96870.06;5073957;28;20025;-28
2022/07/15 01:52:09;;;;;;;3.67;1.80;;;;;;;29.18;44.64;96865.94;5074139;28;20478;-28
2022/07/15 01:54:35;;;;;;;2.13;1.60;;;;;;;29.22;44.71;96867.13;5073826;28;20131;-28
2022/07/15 01:57:00;;;;;;;2.45;1.90;;;;;;;29.17;44.64;96854.06;5073870;28;20504;-28
2022/07/15 01:59:27;;;;;;;2.65;2.03;;;;;;;29.19;44.65;96856.28;5073729;28;20024;-28
2022/07/15 02:01:54;;;;;;;2.63;2.03;;;;;;;29.11;44.88;96849.88;5073658;28;20102;-29
2022/07/15 02:04:21;;;;;;;2.00;1.80;;;;;;;29.13;45.00;96855.66;5073652;28;20020;-28
2022/07/15 02:06:47;;;;;;;1.77;1.63;;;;;;;29.16;44.71;96851.81;5073574;28;20028;-27
2022/07/15 02:09:12;;;;;;;4.38;2.05;;;;;;;29.16;44.84;96849.00;5073573;28;20052;-27
2022/07/15 02:11:38;;;;;;;2.03;1.83;;;;;;;29.18;44.85;96849.19;5073575;28;20497;-27
2022/07/15 02:14:04;;;;;;;2.72;1.90;;;;;;;29.18;44.63;96840.81;5073796;28;20064;-28
2022/07/15 02:16:30;;;;;;;2.25;2.05;;;;;;;29.16;44.85;96840.63;5073618;28;20027;-27
2022/07/15 02:18:57;;;;;;;2.50;2.30;;;;;;;29.12;44.84;96843.00;5073553;28;20036;-27
2022/07/15 02:21:23;;;;;;;2.08;1.92;;;;;;;29.15;44.66;96839.13;5073475;28;20076;-28
2022/07/15 02:23:48;;;;;;;2.70;2.05;;;;;;;29.15;44.74;96839.13;5073556;28;20486;-28
2022/07/15 02:26:14;;;;;;;1.98;1.70;;;;;;;29.12;44.77;96848.56;5073316;28;20024;-28
2022/07/15 02:28:39;;;;;;;3.60;2.30;;;;;;;29.15;44.64;96839.88;5073414;28;20073;-28
2022/07/15 02:31:05;;;;;;;2.42;1.77;;;;;;;29.11;45.02;96845.03;5073289;28;20031;-28
2022/07/15 02:33:31;;;;;;;1.83;1.73;;;;;;;29.13;44.74;96836.88;5073500;28;20387;-28
2022/07/15 02:35:57;;;;;;;2.38;1.80;;;;;;;29.12;44.75;96835.38;5073302;28;20111;-28
2022/07/15 02:38:23;;;;;;;2.45;1.83;;;;;;;29.09;44.89;96841.28;5073380;28;20109;-27
2022/07/15 02:40:48;;;;;;;2.58;2.10;;;;;;;29.11;44.71;96830.31;5073007;28;20031;-28
2022/07/15 02:43:14;;;;;;;2.17;1.98;;;;;;;29.12;44.76;96831.81;5073350;28;20055;-29
2022/07/15 02:45:40;;;;;;;2.13;1.92;;;;;;;29.11;44.75;96827.53;5073129;28;20017;-28
2022/07/15 02:48:06;;;;;;;2.10;1.70;;;;;;;29.09;44.53;96830.09;5073403;28;20103;-27
2022/07/15 02:50:31;;;;;;;2.13;1.92;;;;;;;29.07;44.80;96827.09;5073338;28;20096;-27
2022/07/15 02:52:57;;;;;;;1.67;1.58;;;;;;;29.06;44.70;96837.53;5075324;28;20538;-28
2022/07/15 02:55:22;;;;;;;3.08;2.25;;;;;;;29.10;44.59;96828.81;5077448;28;20069;-28
2022/07/15 02:57:48;;;;;;;2.38;1.80;;;;;;;29.05;44.70;96824.88;5077202;28;20103;-28
2022/07/15 03:00:19;;;;;;;2.20;1.70;;;;;;;29.04;44.91;96822.63;5077240;28;20371;-28
2022/07/15 03:02:45;;;;;;;2.00;1.90;;;;;;;29.05;44.57;96824.13;5077304;28;20025;-28
2022/07/15 03:05:11;;;;;;;2.22;2.03;;;;;;;29.07;44.45;96824.31;5077397;28;20035;-28
2022/07/15 03:07:37;;;;;;;2.30;1.77;;;;;;;29.06;44.64;96831.19;5077004;28;21405;-28
2022/07/15 03:10:04;;;;;;;2.78;1.90;;;;;;;29.04;44.77;96822.63;5077174;28;20472;-29
2022/07/15 03:12:30;;;;;;;2.13;1.85;;;;;;;29.05;44.79;96824.13;5077040;28;20032;-28
2022/07/15 03:14:55;;;;;;;2.13;1.83;;;;;;;29.04;44.37;96823.38;5076928;28;20421;-28
2022/07/15 03:17:21;;;;;;;2.35;2.00;;;;;;;29.07;44.58;96827.09;5076958;28;20036;-27
2022/07/15 03:19:46;;;;;;;2.25;1.85;;;;;;;29.00;44.72;96822.94;5076826;28;20443;-28
2022/07/15 03:22:12;;;;;;;1.77;1.67;;;;;;;29.01;44.76;96815.31;5076638;28;20028;-29
2022/07/15 03:24:37;;;;;;;2.63;2.00;;;;;;;29.02;44.42;96812.00;5076691;28;20016;-27
2022/07/15 03:27:03;;;;;;;2.20;2.00;;;;;;;28.99;44.60;96815.09;5075466;28;20030;-28
2022/07/15 03:29:29;;;;;;;2.13;1.90;;;;;;;29.01;44.63;96823.69;5076586;28;20394;-28
2022/07/15 03:31:55;;;;;;;2.05;1.90;;;;;;;29.00;44.80;96822.94;5076524;28;20020;-28
2022/07/15 03:34:21;;;;;;;2.78;1.90;;;;;;;28.99;44.76;96815.84;5076351;28;20025;-28
2022/07/15 03:36:47;;;;;;;2.25;1.85;;;;;;;29.00;44.67;96827.78;5076581;28;20051;-28
2022/07/15 03:39:12;;;;;;;2.05;1.80;;;;;;;29.00;44.73;96814.56;5076550;28;20043;-28
2022/07/15 03:41:37;;;;;;;3.65;2.20;;;;;;;28.94;44.86;96825.09;5076307;28;20055;-28
2022/07/15 03:44:04;;;;;;;2.10;1.90;;;;;;;28.93;44.96;96818.75;5076716;28;20025;-28
2022/07/15 03:46:30;;;;;;;2.75;2.20;;;;;;;28.95;44.59;96821.00;5076317;28;20119;-28
2022/07/15 03:48:56;;;;;;;1.95;1.75;;;;;;;28.97;44.68;96817.69;5076263;28;20024;-28
2022/07/15 03:51:30;;;;;;;2.47;1.83;;;;;;;28.94;44.74;96809.09;5076321;28;20095;-28
2022/07/15 03:53:58;;;;;;;2.00;1.80;;;;;;;28.99;44.59;96823.47;5076370;28;20025;-29
2022/07/15 03:56:24;;;;;;;2.17;1.98;;;;;;;28.96;44.50;96819.72;5076274;28;20025;-28
2022/07/15 03:58:49;;;;;;;2.88;1.90;;;;;;;28.94;44.59;96820.25;5076119;28;20483;-27
2022/07/15 04:01:14;;;;;;;3.80;2.30;;;;;;;28.93;44.58;96823.63;5076030;28;20045;-28
2022/07/15 04:03:40;;;;;;;4.25;2.17;;;;;;;28.93;44.79;96818.75;5075570;28;20024;-28
2022/07/15 04:06:05;;;;;;;2.95;1.98;;;;;;;28.92;44.65;96822.13;5076056;28;20034;-29
2022/07/15 04:08:31;;;;;;;3.00;2.13;;;;;;;28.97;44.32;96812.09;5075865;28;20044;-28
2022/07/15 04:10:56;;;;;;;2.15;1.80;;;;;;;28.95;44.12;96807.81;5075814;28;20052;-28
2022/07/15 04:13:22;;;;;;;3.45;2.83;;;;;;;28.90;44.59;96819.84;5075908;28;20052;-27
2022/07/15 04:15:48;;;;;;;2.45;2.13;;;;;;;28.92;44.26;96820.06;5076029;28;20024;-28
2022/07/15 04:18:13;;;;;;;4.13;2.40;;;;;;;28.94;44.26;96813.91;5075905;28;20486;-29
2022/07/15 04:20:39;;;;;;;3.05;2.35;;;;;;;28.91;44.38;96815.03;5075555;28;20382;-27
2022/07/15 04:23:04;;;;;;;3.00;2.28;;;;;;;28.94;44.21;96814.69;5075482;28;20020;-29
2022/07/15 04:25:30;;;;;;;2.95;2.20;;;;;;;28.95;43.97;96815.44;5075629;28;20060;-27
2022/07/15 04:27:56;;;;;;;2.40;2.20;;;;;;;28.88;44.19;96805.69;5077508;28;20026;-27
2022/07/15 04:30:21;;;;;;;2.28;2.08;;;;;;;28.88;44.22;96816.84;5087157;28;20024;-28
2022/07/15 04:32:47;;;;;;;2.88;2.20;;;;;;;28.91;44.20;96815.78;5093683;28;20020;-28
2022/07/15 04:35:12;;;;;;;3.00;2.22;;;;;;;28.87;44.11;96817.38;5071496;28;20037;-28
2022/07/15 04:37:37;;;;;;;2.20;1.98;;;;;;;28.91;44.00;96817.81;5073171;28;20108;-28
2022/07/15 04:40:06;;;;;;;3.70;2.30;;;;;;;28.87;43.74;96820.19;5073206;28;20020;-27
2022/07/15 04:42:32;;;;;;;4.93;2.33;;;;;;;28.89;43.86;96812.78;5073006;28;20025;-28
2022/07/15 04:44:57;;;;;;;2.40;1.90;;;;;;;28.87;44.08;96809.75;5073373;28;20367;-27
2022/07/15 04:47:23;;;;;;;3.03;2.28;;;;;;;28.85;43.83;96809.56;5093591;28;20059;-29
2022/07/15 04:52:32;;;;;;;5.50;2.63;;;;;;;28.85;43.96;96811.59;5092511;28;20123;-28
2022/07/15 04:54:58;;;;;;;5.68;2.70;;;;;;;28.84;43.83;96813.63;5093411;28;20095;-27
2022/07/15 04:57:25;;;;;;;3.45;2.25;;;;;;;28.83;43.72;96814.91;5093230;28;20044;-28
2022/07/15 05:00:08;;;;;;;3.10;2.00;;;;;;;28.89;43.70;96817.59;5093223;28;20039;-28
2022/07/15 05:02:53;;;;;;;;;;;;;;;28.85;43.66;96817.91;5093455;28;20036;-27
2022/07/15 05:05:58;;;;;;;3.53;2.20;;;;;;;28.84;43.61;96813.63;5092999;28;19919;-28
2022/07/15 05:08:25;;;;;;;4.82;2.33;;;;;;;28.82;43.58;96818.25;5090180;28;20069;-29
2022/07/15 05:10:51;;;;;;;2.78;2.08;;;;;;;28.85;43.51;96817.16;5092207;28;20470;-28
2022/07/15 05:13:16;;;;;;;4.15;2.30;;;;;;;28.86;43.47;96816.63;5074790;28;20131;-28
2022/07/15 05:15:42;;;;;;;6.35;2.40;;;;;;;28.82;43.28;96815.47;5074008;28;20009;-28
2022/07/15 05:18:07;;;;;;;2.25;2.05;;;;;;;28.83;43.42;96817.72;5074647;28;20020;-28
2022/07/15 05:20:33;;;;;;;2.30;2.10;;;;;;;28.79;43.49;96816.56;5074579;28;20103;-28
2022/07/15 05:22:58;;;;;;;4.93;2.67;;;;;;;28.82;43.18;96812.66;5073368;28;20065;-28
2022/07/15 05:25:24;;;;;;;3.03;2.22;;;;;;;28.82;43.41;96810.63;5074436;28;20021;-28
2022/07/15 05:27:51;;;;;;;4.43;2.60;;;;;;;28.84;43.09;96810.84;5074441;28;20111;-29
2022/07/15 05:30:17;;;;;;;4.70;2.50;;;;;;;28.86;43.08;96815.88;5074327;28;20032;-27
2022/07/15 05:32:43;;;;;;;5.03;2.40;;;;;;;28.83;43.09;96819.75;5074578;28;20024;-28
2022/07/15 05:35:09;;;;;;;3.08;2.45;;;;;;;28.83;43.14;96820.50;5074239;28;20095;-28
2022/07/15 05:37:38;;;;;;;3.63;3.05;;;;;;;28.86;43.05;96813.09;5074049;28;20063;-27
2022/07/15 05:40:06;;;;;;;3.60;2.55;;;;;;;28.82;42.98;96816.22;5074262;28;20037;-27
2022/07/15 05:42:32;;;;;;;4.78;2.35;;;;;;;28.83;42.96;96820.50;5074244;28;20363;-28
2022/07/15 05:44:57;;;;;;;2.78;2.53;;;;;;;28.77;43.22;96824.69;5074042;28;20021;-27
2022/07/15 05:47:23;;;;;;;3.83;2.40;;;;;;;28.76;43.09;96821.13;5073967;28;20028;-27
2022/07/15 05:49:48;;;;;;;5.47;2.70;;;;;;;28.82;43.20;96824.56;5074141;28;20466;-28
2022/07/15 05:52:14;;;;;;;4.95;2.47;;;;;;;28.82;43.12;96824.56;5081319;28;20449;-27
2022/07/15 05:54:40;;;;;;;3.60;2.40;;;;;;;28.82;43.22;96835.00;5081633;28;20059;-28
2022/07/15 05:57:06;;;;;;;4.15;2.63;;;;;;;28.79;43.48;96836.84;5083563;28;20166;-27
2022/07/15 05:59:31;;;;;;;4.65;2.30;;;;;;;28.78;43.34;96834.56;5076510;28;20104;-27
2022/07/15 06:01:58;;;;;;;3.95;2.30;;;;;;;28.76;43.29;96835.09;5072609;28;20028;-28
2022/07/15 06:04:26;;;;;;;2.72;2.13;;;;;;;28.72;43.71;96834.66;5073888;28;20025;-28
2022/07/15 06:06:53;;;;;;;2.60;2.40;;;;;;;28.75;43.72;96841.97;5074221;28;20027;-29
2022/07/15 06:09:19;;;;;;;4.93;2.75;;;;;;;28.75;43.81;96835.63;5073359;28;20045;-28
2022/07/15 06:11:44;;;;;;;4.68;2.47;;;;;;;28.74;43.74;96834.13;5073589;28;20455;-27
2022/07/15 06:14:10;;;;;;;2.92;2.20;;;;;;;28.74;43.95;96840.47;5073639;28;20024;-28
2022/07/15 06:16:37;;;;;;;5.80;3.13;;;;;;;28.81;43.77;96842.63;5073656;28;20396;-29
2022/07/15 06:19:02;;;;;;;2.50;2.20;;;;;;;28.75;44.05;96841.22;5073383;28;20099;-29
2022/07/15 06:21:29;;;;;;;4.03;2.47;;;;;;;28.75;44.46;96847.53;5073950;28;20051;-28
2022/07/15 06:23:55;;;;;;;2.45;2.13;;;;;;;28.76;43.96;96842.72;5073363;28;20032;-29
2022/07/15 06:26:21;;;;;;;4.53;2.42;;;;;;;28.75;44.01;96841.97;5073306;28;20447;-28
2022/07/15 06:28:46;;;;;;;2.40;2.17;;;;;;;28.78;43.89;96840.91;5073501;28;20031;-28
2022/07/15 06:31:12;;;;;;;3.88;2.47;;;;;;;28.73;44.17;96850.13;5073446;28;20025;-28
2022/07/15 06:33:37;;;;;;;4.53;2.35;;;;;;;28.75;43.95;96847.53;5073457;28;20028;-28
2022/07/15 06:36:03;;;;;;;2.80;2.45;;;;;;;28.81;43.99;96844.66;5073734;28;20119;-28
2022/07/15 06:38:31;;;;;;;5.45;2.70;;;;;;;28.70;44.30;96850.44;5073281;28;20028;-28
2022/07/15 06:40:57;;;;;;;6.43;2.10;;;;;;;28.72;44.29;96843.03;5073166;28;20060;-29
2022/07/15 06:43:22;;;;;;;5.70;2.60;;;;;;;28.68;44.28;96844.66;5073376;28;20494;-30
2022/07/15 06:45:48;;;;;;;2.58;2.28;;;;;;;28.81;44.27;96851.00;5073251;28;20028;-28
2022/07/15 06:48:14;;;;;;;3.42;2.25;;;;;;;28.76;43.98;96853.88;5073165;28;20021;-27
2022/07/15 06:50:40;;;;;;;5.28;2.67;;;;;;;28.76;44.05;96857.44;5073112;28;20016;-28
2022/07/15 06:53:05;;;;;;;2.65;2.00;;;;;;;28.69;44.36;96848.94;5073238;28;20029;-28
2022/07/15 06:55:31;;;;;;;3.22;2.20;;;;;;;28.64;44.45;96853.34;5073288;28;20024;-29
2022/07/15 06:57:56;;;;;;;4.35;2.40;;;;;;;28.65;44.46;96852.06;5072985;28;20035;-27
2022/07/15 07:00:21;;;;;;;3.63;2.20;;;;;;;28.51;45.12;96845.75;5073266;28;20356;-28
2022/07/15 07:02:47;;;;;;;4.70;2.30;;;;;;;28.45;45.11;96845.09;5072823;28;20028;-28
2022/07/15 07:05:12;;;;;;;5.00;2.58;;;;;;;28.59;44.46;96848.63;5073188;28;20386;-28
2022/07/15 07:07:38;;;;;;;4.30;2.20;;;;;;;28.70;44.21;96851.19;5072964;28;20044;-28
2022/07/15 07:10:05;;;;;;;7.65;2.67;;;;;;;27.52;47.42;96841.34;5073138;28;20086;-26
2022/07/15 07:12:30;;;;;;;6.18;2.90;;;;;;;27.44;47.36;96839.72;5070573;28;20020;-26
2022/07/15 07:14:56;;;;;;;7.82;2.45;;;;;;;27.85;46.22;96839.31;5073094;28;20024;-30
2022/07/15 07:17:21;;;;;;;4.05;2.25;;;;;;;28.17;45.68;96842.81;5072901;28;20027;-29
2022/07/15 07:19:46;;;;;;;3.83;2.38;;;;;;;28.22;45.08;96846.78;5072784;28;20032;-29
2022/07/15 07:22:12;;;;;;;5.88;2.50;;;;;;;28.38;44.79;96845.00;5073004;28;20390;-29
2022/07/15 07:24:38;;;;;;;3.60;2.20;;;;;;;28.45;44.68;96839.50;5072886;28;20027;-29
2022/07/15 07:27:04;;;;;;;4.15;1.92;;;;;;;28.47;44.59;96838.97;5072893;28;20074;-29
2022/07/15 07:29:30;;;;;;;5.68;2.28;;;;;;;28.34;45.33;96841.75;5072876;28;20075;-29
2022/07/15 07:31:55;;;;;;;2.60;2.38;;;;;;;28.30;45.28;96839.31;5072762;28;20398;-29
2022/07/15 07:34:21;;;;;;;2.83;2.53;;;;;;;28.48;44.83;96846.06;5072668;28;20100;-29
2022/07/15 07:36:48;;;;;;;2.90;2.55;;;;;;;28.44;44.72;96840.03;5072759;28;20035;-29
2022/07/15 07:39:14;;;;;;;4.15;2.60;;;;;;;28.40;44.63;96834.06;5075214;28;20474;-30
2022/07/15 07:41:40;;;;;;;4.05;2.53;;;;;;;28.47;44.46;96839.72;5076340;28;20028;-29
2022/07/15 07:44:06;;;;;;;2.58;2.20;;;;;;;28.49;44.43;96841.97;5076368;28;20033;-30
2022/07/15 07:46:33;;;;;;;3.58;2.22;;;;;;;28.45;44.17;96841.53;5076516;28;20387;-29
2022/07/15 07:48:59;;;;;;;4.10;2.35;;;;;;;28.13;44.53;96839.59;5076327;28;20419;-28
2022/07/15 07:51:24;;;;;;;2.80;2.08;;;;;;;28.19;44.41;96826.31;5076343;28;20146;-29
2022/07/15 07:53:50;;;;;;;2.70;2.47;;;;;;;28.21;44.20;96826.53;5076138;28;20025;-29
2022/07/15 07:56:15;;;;;;;2.65;2.28;;;;;;;28.26;43.54;96829.75;5076182;28;20028;-29
2022/07/15 07:58:41;;;;;;;3.67;2.10;;;;;;;28.49;43.14;96836.41;5076121;28;20023;-28
2022/07/15 08:01:07;;;;;;;9.02;2.58;;;;;;;28.37;43.26;96832.31;5075686;28;20032;-29
2022/07/15 08:03:32;;;;;;;3.97;2.55;;;;;;;28.44;42.89;96831.66;5076083;28;20025;-29
2022/07/15 08:05:58;;;;;;;2.25;2.05;;;;;;;28.56;42.89;96832.97;5076067;28;20032;-29
2022/07/15 08:08:24;;;;;;;2.42;2.22;;;;;;;28.52;43.23;96835.34;5075888;28;20064;-29
2022/07/15 08:10:52;;;;;;;3.38;2.28;;;;;;;28.51;43.31;96828.25;5075945;28;20089;-29
2022/07/15 08:13:19;;;;;;;7.97;2.80;;;;;;;28.43;43.85;96833.75;5075894;28;20440;-29
2022/07/15 08:15:45;;;;;;;7.25;2.90;;;;;;;28.43;43.96;96832.97;5075711;28;20078;-29
2022/07/15 08:18:11;;;;;;;4.28;2.13;;;;;;;28.34;43.42;96833.41;5075750;28;20108;-28
2022/07/15 08:20:37;;;;;;;3.22;2.30;;;;;;;28.52;43.29;96832.53;5075676;28;20111;-29
2022/07/15 08:23:04;;;;;;;2.30;1.98;;;;;;;28.20;42.71;96832.63;5075725;28;20091;-29
2022/07/15 08:25:32;;;;;;;3.42;2.10;;;;;;;28.37;41.10;96823.97;5075765;28;20021;-29
2022/07/15 08:27:58;;;;;;;2.40;2.20;;;;;;;28.20;41.12;96827.81;5075427;28;20022;-29
2022/07/15 08:30:25;;;;;;;3.17;1.90;;;;;;;28.41;41.05;96829.97;5075885;28;20024;-29
2022/07/15 08:32:50;;;;;;;3.35;2.20;;;;;;;28.09;41.59;96827.97;5075573;28;20019;-30
2022/07/15 08:35:16;;;;;;;2.10;1.90;;;;;;;28.29;39.60;96834.25;5075613;28;20472;-30
2022/07/15 08:37:41;;;;;;;3.17;2.13;;;;;;;28.29;39.44;96826.66;5075353;28;20535;-29
2022/07/15 08:40:10;;;;;;;3.03;2.38;;;;;;;28.41;40.81;96832.75;5075453;28;20115;-29
2022/07/15 08:42:46;;;;;;;2.50;2.30;;;;;;;28.46;40.94;96837.47;5075347;28;20028;-29
2022/07/15 08:45:13;;;;;;;2.42;2.15;;;;;;;28.49;39.75;96826.00;5075410;28;20066;-30
2022/07/15 08:47:44;;;;;;;4.50;2.20;;;;;;;28.50;39.92;96827.50;5075217;28;20024;-30
2022/07/15 08:50:12;;;;;;;5.15;2.10;;;;;;;28.50;39.48;96826.75;5074078;28;20394;-29
2022/07/15 08:52:39;;;;;;;2.80;2.05;;;;;;;28.54;39.65;96832.75;5075097;28;20104;-29
2022/07/15 08:55:06;;;;;;;2.30;2.10;;;;;;;28.56;39.30;96830.19;5075125;28;20032;-28
2022/07/15 08:57:32;;;;;;;4.15;2.13;;;;;;;28.52;39.80;96826.97;5074943;28;20103;-29
2022/07/15 08:59:58;;;;;;;3.70;2.05;;;;;;;28.44;39.03;96821.25;5075095;28;20386;-29
2022/07/15 09:02:23;;;;;;;2.25;2.05;;;;;;;28.52;39.97;96829.75;5074824;28;20024;-30
2022/07/15 09:05:23;;;;;;;2.45;1.98;;;;;;;28.48;39.13;96823.75;5074848;28;20393;-30
2022/07/15 09:07:55;;;;;;;3.05;1.92;;;;;;;28.42;36.40;96829.44;5074997;28;20031;-29
2022/07/15 09:10:22;;;;;;;2.00;1.90;;;;;;;28.51;38.73;96819.88;5074770;28;20041;-30
2022/07/15 09:12:50;;;;;;;4.25;2.25;;;;;;;28.55;38.67;96823.84;5074698;28;20016;-29
2022/07/15 09:15:33;;;;;;;2.97;2.05;;;;;;;28.29;38.28;96823.88;5074802;28;20021;-29
2022/07/15 09:18:06;;;;;;;2.67;1.90;;;;;;;28.43;37.49;96830.94;5074565;28;20021;-31
2022/07/15 09:20:32;;;;;;;1.92;1.80;;;;;;;28.45;38.08;96824.81;5073346;28;20024;-29
2022/07/15 09:22:59;;;;;;;2.22;2.05;;;;;;;28.54;37.68;96827.19;5074618;28;20031;-30
2022/07/15 09:25:27;;;;;;;5.70;2.05;;;;;;;28.52;37.46;96821.38;5074451;28;20024;-29
2022/07/15 09:27:53;;;;;;;1.80;1.70;;;;;;;28.36;36.83;96820.41;5074348;28;20052;-29
2022/07/15 09:36:18;;;;;;;1.90;1.80;;;;;;;28.57;36.68;96812.13;5074249;28;20032;-29
2022/07/15 09:38:55;;;;;;;2.15;1.95;;;;;;;28.57;36.40;96817.72;5074183;28;20024;-29
2022/07/15 09:41:33;;;;;;;3.08;2.25;;;;;;;28.57;36.75;96820.50;5074190;28;20115;-31
2022/07/15 09:43:58;;;;;;;2.42;1.70;;;;;;;28.54;36.10;96821.59;5073977;28;20026;-30
2022/07/15 09:46:27;;;;;;;1.95;1.80;;;;;;;28.42;35.74;96812.72;5074182;28;20363;-29
2022/07/15 09:48:53;;;;;;;2.00;1.90;;;;;;;28.51;34.93;96817.09;5073989;28;20020;-29
2022/07/15 09:51:19;;;;;;;2.53;2.10;;;;;;;28.57;34.83;96818.47;5074101;28;20025;-29
2022/07/15 09:53:45;;;;;;;1.98;1.88;;;;;;;28.63;34.95;96812.03;5073956;28;20478;-30
2022/07/15 09:56:15;;;;;;;3.95;1.95;;;;;;;28.68;34.26;96811.19;5073858;28;20051;-28
2022/07/15 09:58:43;;;;;;;1.70;1.60;;;;;;;28.63;34.71;96812.78;5073970;28;20021;-29
2022/07/15 10:01:10;;;;;;;2.00;1.73;;;;;;;28.66;34.95;96808.94;5073264;28;20526;-29
2022/07/15 10:03:37;;;;;;;2.67;1.95;;;;;;;28.55;34.83;96803.56;5073932;28;20364;-29
2022/07/15 10:06:03;;;;;;;2.03;1.73;;;;;;;28.63;34.59;96795.28;5073518;28;20478;-29
2022/07/15 10:08:31;;;;;;;2.83;2.20;;;;;;;28.61;34.20;96807.00;5073641;28;20048;-29
2022/07/15 10:10:57;;;;;;;2.40;2.20;;;;;;;28.56;34.60;96802.28;5073460;28;20027;-29
2022/07/15 10:13:42;;;;;;;3.15;1.80;;;;;;;28.61;34.20;96801.41;5073732;28;20103;-29
2022/07/15 10:16:14;;;;;;;2.22;2.00;;;;;;;28.66;33.90;96806.13;5073745;28;20036;-29
2022/07/15 10:18:50;;;;;;;4.35;2.28;;;;;;;28.67;33.30;96796.47;5073704;28;20092;-30
2022/07/15 10:21:40;;;;;;;2.50;2.30;;;;;;;28.69;33.19;96793.88;5073488;28;20016;-29
2022/07/15 10:24:17;;;;;;;2.47;1.75;;;;;;;28.68;33.29;96797.22;5073711;28;20025;-29
2022/07/15 10:27:14;;;;;;;3.63;2.33;;;;;;;28.69;32.69;96793.13;5073660;28;20020;-29
2022/07/15 10:29:41;;;;;;;2.20;2.00;;;;;;;28.69;32.56;96787.53;5073536;28;20021;-28
2022/07/15 10:32:07;;;;;;;3.15;2.28;;;;;;;28.69;32.30;96784.75;5073181;28;20028;-29
2022/07/15 10:34:35;;;;;;;2.83;2.53;;;;;;;28.70;32.39;96791.84;5073167;28;20028;-29
2022/07/15 10:37:12;;;;;;;3.42;2.22;;;;;;;28.67;32.11;96779.72;5073614;28;20024;-29
2022/07/15 10:39:57;;;;;;;2.50;2.22;;;;;;;28.69;32.66;96788.28;5073230;28;20066;-30
2022/07/15 10:42:23;;;;;;;2.90;2.42;;;;;;;28.78;32.48;96784.31;5073079;28;20025;-30
2022/07/15 10:45:00;;;;;;;3.25;2.40;;;;;;;28.71;32.76;96779.38;5073304;28;20066;-29
2022/07/15 10:47:26;;;;;;;3.38;2.78;;;;;;;28.74;32.27;96784.63;5073227;28;20396;-30
2022/07/15 10:49:52;;;;;;;2.78;2.40;;;;;;;28.76;31.77;96779.28;5073062;28;20028;-30
2022/07/15 10:52:19;;;;;;;2.92;2.70;;;;;;;28.75;31.94;96769.41;5073345;28;20117;-29
2022/07/15 10:54:54;;;;;;;3.67;2.97;;;;;;;28.74;31.78;96767.91;5073192;28;20103;-29
2022/07/15 10:57:20;;;;;;;3.00;2.67;;;;;;;28.69;31.61;96768.00;5073047;28;20056;-29
2022/07/15 10:59:52;;;;;;;4.03;3.13;;;;;;;28.73;31.42;96765.63;5073134;28;20028;-30
2022/07/15 11:02:20;;;;;;;3.63;3.33;;;;;;;28.74;31.22;96770.69;5072910;28;20108;-29
2022/07/15 11:04:46;;;;;;;3.65;3.20;;;;;;;28.66;30.79;96772.66;5073042;28;20033;-29
2022/07/15 11:07:17;;;;;;;3.78;3.28;;;;;;;28.65;30.98;96759.97;5073011;28;20021;-29
2022/07/15 11:09:54;;;;;;;3.72;3.13;;;;;;;28.78;30.57;96762.78;5072834;28;20096;-29
2022/07/15 11:12:29;;;;;;;3.17;2.88;;;;;;;28.74;29.87;96758.78;5073158;28;20012;-30
2022/07/15 11:14:55;;;;;;;3.35;3.05;;;;;;;28.71;30.46;96757.06;5077012;28;20035;-30
2022/07/15 11:17:28;;;;;;;3.47;3.17;;;;;;;28.76;29.20;96753.41;5076676;28;20021;-29
2022/07/15 11:19:54;;;;;;;3.40;3.10;;;;;;;28.86;30.79;96751.69;5076946;28;20035;-29
2022/07/15 11:22:22;;;;;;;3.60;3.30;;;;;;;28.82;29.42;96748.47;5076968;28;20028;-29
2022/07/15 11:24:48;;;;;;;3.97;3.67;;;;;;;28.74;29.52;96747.59;5076813;28;20020;-29
2022/07/15 11:27:14;;;;;;;4.78;3.75;;;;;;;28.75;28.75;96743.53;5076868;28;20425;-30
2022/07/15 11:30:03;;;;;;;4.15;3.83;;;;;;;28.54;28.45;96743.47;5076804;28;20020;-29
2022/07/15 11:32:31;;;;;;;4.40;4.00;;;;;;;28.67;29.50;96739.91;5076632;28;20031;-29
2022/07/15 11:34:59;;;;;;;4.35;3.95;;;;;;;28.70;28.62;96736.75;5076776;28;20029;-29
2022/07/15 11:37:27;;;;;;;4.80;3.85;;;;;;;28.82;28.67;96735.25;5076604;28;20047;-29
2022/07/15 11:45:46;;;;;;;5.70;4.10;;;;;;;28.54;28.05;96735.09;5076667;28;20028;-29
2022/07/15 11:48:12;;;;;;;5.25;4.72;;;;;;;28.66;28.62;96728.00;5076412;28;20020;-29
2022/07/15 11:50:49;;;;;;;5.80;4.35;;;;;;;28.45;29.05;96721.59;5076825;28;20447;-29
2022/07/15 11:53:15;;;;;;;5.55;4.10;;;;;;;28.45;29.35;96735.53;5076334;28;20055;-29